Terminal Aerodrome Forecast
Issued by NWS Louisville, KY

Home | Current Version | Previous Version | Text Only | Print | Product List | Glossary On
Versions: 1 2 3 4 5 6 7 8 9 10 11 12 13 14 15 16 17 18
516
FTUS43 KLMK 010844 AAB
TAFSDF
TAF AMD
KSDF 010844Z 0109/0212 VRB06KT 6SM BR OVC008
      TEMPO 0109/0110 VRB06KT 4SM -RA
     FM011000 VRB04KT 6SM BR BKN007 BKN100
     FM011400 24008KT P6SM SCT025 BKN035 PROB30 0119/0123 5SM TSRA
      BKN030CB
     FM020000 23007KT P6SM BKN060=

USA.gov is the U.S. government's official web portal to all federal, state and local government web resources and services.